Time;durP1;ratioP1;P1;durP2;ratioP2;P2;SDS_P1;SDS_P2;PMS_P1;PMS_P2;Temp;Humidity;BMP_temperature;BMP_pressure;BME280_temperature;BME280_humidity;BME280_pressure;Samples;Min_cycle;Max_cycle;Signal;HPM_P1;HPM_P2
2022/10/09 00:03:19;;;;;;;15.67;8.80;;;6.50;99.90;;;;;;2615796;54;20359;-77
2022/10/09 00:09:07;;;;;;;9.70;8.65;;;6.70;99.90;;;;;;2616110;54;20142;-78
2022/10/09 00:14:55;;;;;;;10.80;8.90;;;6.70;99.90;;;;;;2615362;54;20126;-78
2022/10/09 00:20:45;;;;;;;13.00;10.40;;;6.60;99.90;;;;;;2618049;54;20115;-78
2022/10/09 00:26:33;;;;;;;16.13;9.40;;;6.60;99.90;;;;;;2617357;46;20480;-79
2022/10/09 00:32:20;;;;;;;18.67;9.50;;;6.60;99.90;;;;;;2618577;54;20221;-79
2022/10/09 00:38:10;;;;;;;18.27;9.80;;;6.30;99.90;;;;;;2618130;54;20128;-79
2022/10/09 00:44:01;;;;;;;14.87;9.97;;;6.10;99.90;;;;;;2618098;46;20412;-79
2022/10/09 00:49:53;;;;;;;9.73;8.73;;;5.90;99.90;;;;;;2617902;54;20371;-78
2022/10/09 00:52:58;;;;;;;11.53;8.27;;;5.80;99.90;;;;;;2618421;54;20922;-80
2022/10/09 00:55:26;;;;;;;17.20;9.13;;;5.80;99.90;;;;;;2618540;54;20493;-80
2022/10/09 01:01:14;;;;;;;13.87;9.97;;;5.60;99.90;;;;;;2618925;54;20411;-79
2022/10/09 01:07:08;;;;;;;15.63;9.00;;;5.60;99.90;;;;;;2618681;54;20122;-79
2022/10/09 01:13:07;;;;;;;15.50;9.35;;;5.70;99.90;;;;;;2618040;54;20343;-79
2022/10/09 01:31:42;;;;;;;10.17;9.07;;;5.20;99.90;;;;;;2618204;54;20384;-79
2022/10/09 01:37:32;;;;;;;11.27;10.07;;;5.40;99.90;;;;;;2617919;54;20126;-79
2022/10/09 01:43:20;;;;;;;10.63;9.45;;;5.30;99.90;;;;;;2620252;39;20616;-80
2022/10/09 01:49:14;;;;;;;18.43;9.60;;;5.20;99.90;;;;;;2619097;39;20565;-78
2022/10/09 01:58:32;;;;;;;15.07;9.95;;;5.00;99.90;;;;;;2618406;54;20392;-78
2022/10/09 02:04:22;;;;;;;12.23;9.70;;;5.10;99.90;;;;;;2618078;54;20539;-79
2022/10/09 02:10:11;;;;;;;15.17;10.90;;;5.30;99.90;;;;;;2619476;54;20422;-79
2022/10/09 02:16:14;;;;;;;10.57;9.50;;;5.00;99.90;;;;;;2619722;54;20935;-78
2022/10/09 02:22:07;;;;;;;10.98;9.68;;;5.00;99.90;;;;;;2619297;54;20123;-79
2022/10/09 02:27:54;;;;;;;15.17;9.87;;;4.80;99.90;;;;;;2619430;39;20858;-79
2022/10/09 02:33:42;;;;;;;13.20;9.73;;;5.00;99.90;;;;;;2618390;54;20342;-77
2022/10/09 02:39:30;;;;;;;16.83;10.40;;;4.80;99.90;;;;;;2617928;54;20151;-77
2022/10/09 02:45:17;;;;;;;15.20;9.90;;;4.80;99.90;;;;;;2619269;54;20126;-79
2022/10/09 02:51:05;;;;;;;12.97;10.70;;;4.80;99.90;;;;;;2617231;54;20207;-78
2022/10/09 03:00:21;;;;;;;15.50;10.63;;;4.50;99.90;;;;;;2615822;54;20154;-78
2022/10/09 03:06:15;;;;;;;13.10;9.60;;;4.50;99.90;;;;;;2617421;54;20397;-77
2022/10/09 03:12:03;;;;;;;11.90;10.30;;;4.70;99.90;;;;;;2616864;54;21464;-79
2022/10/09 03:17:51;;;;;;;17.52;11.80;;;4.50;99.90;;;;;;2617846;54;20358;-79
2022/10/09 03:23:39;;;;;;;17.83;10.73;;;4.40;99.90;;;;;;2615937;54;20131;-78
2022/10/09 03:29:27;;;;;;;13.93;9.70;;;4.50;99.90;;;;;;2616229;54;20908;-77
2022/10/09 03:35:15;;;;;;;14.40;10.73;;;4.30;99.90;;;;;;2616311;54;20124;-76
2022/10/09 03:41:04;;;;;;;19.93;11.10;;;4.30;99.90;;;;;;2617482;54;20192;-77
2022/10/09 03:46:52;;;;;;;11.10;10.00;;;4.30;99.90;;;;;;2616818;54;20416;-78
2022/10/09 03:52:39;;;;;;;20.37;10.90;;;4.20;99.90;;;;;;2616140;54;20210;-78
2022/10/09 03:55:49;;;;;;;12.53;10.73;;;4.20;99.90;;;;;;2616736;54;20378;-78
2022/10/09 03:58:15;;;;;;;19.07;10.00;;;4.20;99.90;;;;;;2616067;47;20412;-77
2022/10/09 04:04:02;;;;;;;14.00;9.70;;;4.30;99.90;;;;;;2616389;54;20158;-77
2022/10/09 04:09:50;;;;;;;13.77;9.47;;;4.10;99.90;;;;;;2616508;54;20501;-77
2022/10/09 04:15:38;;;;;;;13.70;9.77;;;4.00;99.90;;;;;;2616374;54;20126;-79
2022/10/09 04:21:26;;;;;;;15.80;10.97;;;4.10;99.90;;;;;;2615071;54;20123;-77
2022/10/09 04:27:13;;;;;;;11.33;9.50;;;4.00;99.90;;;;;;2615285;54;20166;-78
2022/10/09 04:33:01;;;;;;;11.97;9.67;;;4.00;99.90;;;;;;2617284;54;20122;-78
2022/10/09 04:38:48;;;;;;;14.68;10.02;;;3.80;99.90;;;;;;2616869;54;20126;-76
2022/10/09 04:44:36;;;;;;;12.23;10.40;;;4.00;99.90;;;;;;2617505;54;20130;-76
2022/10/09 04:50:24;;;;;;;12.47;10.80;;;3.80;99.90;;;;;;2614875;54;20240;-77
2022/10/09 05:00:20;;;;;;;12.30;9.63;;;3.90;99.90;;;;;;2616397;54;20366;-77
2022/10/09 05:06:09;;;;;;;11.90;8.80;;;3.80;99.90;;;;;;2616248;54;20419;-76
2022/10/09 05:11:57;;;;;;;15.80;11.03;;;3.80;99.90;;;;;;2616755;54;20339;-77
2022/10/09 05:17:45;;;;;;;12.73;9.33;;;3.90;99.90;;;;;;2616688;54;20170;-77
2022/10/09 05:23:34;;;;;;;12.00;10.20;;;3.90;99.90;;;;;;2617370;31;20604;-77
2022/10/09 05:29:22;;;;;;;13.90;9.57;;;3.80;99.90;;;;;;2616311;54;20378;-77
2022/10/09 05:35:10;;;;;;;12.47;8.80;;;3.70;99.90;;;;;;2617019;54;20409;-77
2022/10/09 05:41:00;;;;;;;11.57;9.20;;;3.80;99.90;;;;;;2617120;39;20861;-77
2022/10/09 05:46:48;;;;;;;17.90;9.87;;;3.80;99.90;;;;;;2617528;54;20410;-78
2022/10/09 05:52:35;;;;;;;15.47;10.47;;;3.70;99.90;;;;;;2616163;54;20147;-78
2022/10/09 05:58:33;;;;;;;15.70;11.40;;;3.80;99.90;;;;;;2614247;54;20143;-78
2022/10/09 06:04:22;;;;;;;13.33;10.23;;;3.80;99.90;;;;;;2614865;54;20167;-78
2022/10/09 06:10:10;;;;;;;14.00;10.93;;;3.80;99.90;;;;;;2612614;54;20495;-78
2022/10/09 06:15:57;;;;;;;15.45;10.98;;;3.90;99.90;;;;;;2613332;54;20147;-76
2022/10/09 06:21:45;;;;;;;18.50;11.43;;;4.00;99.90;;;;;;2613076;54;20237;-77
2022/10/09 06:27:33;;;;;;;14.07;11.07;;;4.10;99.90;;;;;;2612240;54;20400;-77
2022/10/09 06:33:20;;;;;;;13.53;10.57;;;4.30;99.90;;;;;;2611257;54;20159;-78
2022/10/09 06:39:09;;;;;;;17.20;12.20;;;4.50;99.90;;;;;;2614546;54;20471;-79
2022/10/09 06:44:56;;;;;;;22.40;12.47;;;4.60;99.90;;;;;;2614819;54;20387;-78
2022/10/09 06:50:44;;;;;;;21.60;12.17;;;4.90;99.90;;;;;;2616639;54;20131;-79
2022/10/09 07:00:22;;;;;;;17.77;10.20;;;7.90;99.90;;;;;;2617199;39;21243;-78
2022/10/09 07:06:15;;;;;;;9.57;8.57;;;9.40;99.90;;;;;;2617981;31;20998;-78
2022/10/09 07:12:03;;;;;;;11.10;9.10;;;10.40;99.90;;;;;;2617679;54;20426;-79
2022/10/09 07:17:51;;;;;;;9.32;8.38;;;11.30;99.90;;;;;;2615268;54;20463;-78
2022/10/09 07:23:39;;;;;;;10.93;9.30;;;11.60;99.90;;;;;;2615877;54;20239;-78
2022/10/09 07:29:27;;;;;;;7.53;6.80;;;12.00;99.90;;;;;;2615001;54;20155;-77
2022/10/09 07:35:14;;;;;;;8.00;6.90;;;12.50;99.90;;;;;;2614962;54;20137;-76
2022/10/09 07:41:08;;;;;;;10.70;7.53;;;13.00;99.90;;;;;;2615280;54;20162;-76
2022/10/09 07:46:55;;;;;;;7.47;6.90;;;13.50;99.90;;;;;;2616021;54;20375;-76
2022/10/09 07:52:43;;;;;;;9.00;7.00;;;13.70;99.90;;;;;;2616288;54;20222;-77
2022/10/09 07:55:47;;;;;;;8.00;6.93;;;14.10;99.90;;;;;;2616214;54;20422;-77
2022/10/09 07:58:15;;;;;;;9.43;7.30;;;14.20;99.90;;;;;;2615149;47;20177;-76
2022/10/09 08:04:03;;;;;;;8.70;6.83;;;14.70;99.90;;;;;;2615504;54;20411;-76
2022/10/09 08:09:51;;;;;;;9.40;7.93;;;14.50;99.90;;;;;;2614956;47;20493;-76
2022/10/09 08:15:41;;;;;;;9.17;7.93;;;15.20;96.80;;;;;;2614966;54;20390;-77
2022/10/09 08:21:31;;;;;;;6.10;5.60;;;15.90;90.90;;;;;;2614609;54;20394;-76
2022/10/09 08:27:19;;;;;;;9.27;5.40;;;16.70;46.30;;;;;;2615644;31;20922;-77
2022/10/09 08:33:07;;;;;;;10.47;5.73;;;18.20;35.20;;;;;;2615261;54;20239;-79
2022/10/09 08:38:54;;;;;;;5.17;4.40;;;17.40;35.40;;;;;;2616495;54;20119;-77
2022/10/09 08:44:46;;;;;;;4.97;4.50;;;17.20;39.10;;;;;;2615789;54;20141;-78
2022/10/09 08:50:37;;;;;;;6.73;3.87;;;18.10;32.40;;;;;;2615416;54;20138;-78
2022/10/09 09:00:26;;;;;;;4.20;3.90;;;18.80;25.60;;;;;;2615808;54;20410;-80
2022/10/09 09:10:01;;;;;;;5.57;5.07;;;17.50;29.60;;;;;;2613148;54;20454;-78
2022/10/09 09:18:54;;;;;;;6.97;5.00;;;18.50;28.00;;;;;;2616591;46;20158;-77
2022/10/09 09:37:31;;;;;;;4.87;4.30;;;18.70;29.70;;;;;;2615515;54;20380;-81
2022/10/09 09:43:22;;;;;;;5.67;4.47;;;19.70;25.60;;;;;;2616834;54;20174;-80
2022/10/09 09:55:32;;;;;;;5.33;4.57;;;18.60;25.50;;;;;;2616921;54;20411;-79
2022/10/09 10:01:23;;;;;;;4.60;4.30;;;19.40;23.20;;;;;;2616726;54;20446;-79
2022/10/09 10:04:45;;;;;;;4.87;4.40;;;18.60;23.90;;;;;;2615983;54;20420;-76
2022/10/09 10:10:33;;;;;;;6.50;4.57;;;18.80;22.50;;;;;;2616970;54;20447;-78
2022/10/09 10:16:25;;;;;;;6.37;4.40;;;18.50;22.10;;;;;;2616811;54;20133;-77
2022/10/09 10:22:24;;;;;;;6.90;4.50;;;19.20;22.80;;;;;;2616311;54;20950;-77
2022/10/09 10:28:18;;;;;;;7.53;4.50;;;18.60;21.50;;;;;;2616312;54;20419;-76
2022/10/09 10:40:41;;;;;;;4.73;3.97;;;19.60;19.20;;;;;;2616956;54;20389;-78
2022/10/09 10:46:36;;;;;;;7.38;4.82;;;19.00;19.20;;;;;;2615606;54;20242;-76
2022/10/09 10:59:38;;;;;;;4.90;4.50;;;19.80;17.10;;;;;;2613527;54;20956;-77
2022/10/09 11:05:47;;;;;;;4.97;4.10;;;19.10;16.20;;;;;;2613878;54;20446;-77
2022/10/09 11:41:35;;;;;;;4.30;4.07;;;20.60;12.60;;;;;;2615821;54;20492;-76
2022/10/09 11:47:22;;;;;;;6.13;4.20;;;21.30;11.70;;;;;;2614911;54;20404;-78
2022/10/09 12:00:06;;;;;;;5.30;4.40;;;20.40;12.00;;;;;;2614565;54;20422;-77
2022/10/09 12:15:37;;;;;;;4.73;4.33;;;22.10;9.20;;;;;;2613933;54;20368;-78
2022/10/09 12:21:30;;;;;;;5.57;4.70;;;20.10;10.70;;;;;;2612465;54;20459;-78
2022/10/09 12:27:23;;;;;;;5.63;4.18;;;20.60;10.50;;;;;;2614811;54;20451;-78
2022/10/09 12:36:33;;;;;;;4.27;3.97;;;20.20;10.60;;;;;;2615388;54;20387;-78
2022/10/09 12:42:23;;;;;;;7.10;4.13;;;21.40;10.50;;;;;;2613957;54;20422;-77
2022/10/09 12:48:13;;;;;;;4.63;3.70;;;22.80;8.70;;;;;;2614440;54;20393;-78
2022/10/09 12:54:07;;;;;;;5.23;4.73;;;22.10;8.80;;;;;;2616477;54;20412;-78
2022/10/09 12:59:56;;;;;;;4.23;3.93;;;22.50;9.80;;;;;;2615157;39;20782;-78
2022/10/09 13:09:07;;;;;;;7.73;4.00;;;20.90;6.20;;;;;;2617451;46;20166;-81
2022/10/09 13:15:06;;;;;;;4.70;4.30;;;21.20;7.90;;;;;;2617708;39;20771;-81
2022/10/09 13:27:41;;;;;;;4.53;4.10;;;21.40;7.90;;;;;;2616566;54;20379;-81
2022/10/09 13:33:28;;;;;;;3.83;3.50;;;22.10;6.10;;;;;;2616449;54;20279;-81
2022/10/09 13:35:54;;;;;;;5.00;4.50;;;22.00;7.00;;;;;;2616833;39;20606;-81
2022/10/09 13:38:20;;;;;;;4.50;4.20;;;22.70;6.80;;;;;;2616112;54;20175;-80
2022/10/09 13:44:07;;;;;;;4.83;3.97;;;23.30;6.10;;;;;;2615719;54;20135;-81
2022/10/09 13:49:55;;;;;;;4.53;4.23;;;22.70;6.80;;;;;;2615055;54;20412;-77
2022/10/09 13:55:42;;;;;;;4.13;3.40;;;22.50;6.90;;;;;;2616051;54;20147;-78
2022/10/09 14:01:29;;;;;;;5.37;4.30;;;21.70;6.40;;;;;;2616384;39;20750;-78
2022/10/09 14:04:29;;;;;;;4.47;4.07;;;22.10;7.20;;;;;;2615949;54;20407;-77
2022/10/09 14:06:56;;;;;;;4.20;3.90;;;22.80;7.20;;;;;;2616393;54;20139;-77
2022/10/09 14:12:43;;;;;;;3.80;3.60;;;23.70;5.20;;;;;;2617001;54;20131;-79
2022/10/09 14:18:32;;;;;;;5.20;4.70;;;23.70;4.50;;;;;;2617254;54;20496;-81
2022/10/09 14:24:20;;;;;;;4.47;4.00;;;22.80;4.50;;;;;;2618275;54;20135;-82
2022/10/09 14:30:08;;;;;;;4.70;3.90;;;22.50;5.00;;;;;;2617135;39;20563;-80
2022/10/09 14:36:02;;;;;;;5.05;4.55;;;22.50;4.50;;;;;;2618157;54;20387;-81
2022/10/09 14:41:50;;;;;;;4.70;4.30;;;22.50;5.30;;;;;;2617788;54;20408;-81
2022/10/09 14:47:38;;;;;;;4.00;3.70;;;23.10;4.60;;;;;;2617832;46;20248;-81
2022/10/09 14:53:26;;;;;;;6.50;4.07;;;22.80;5.50;;;;;;2616864;54;20130;-81
2022/10/09 14:59:14;;;;;;;4.80;4.50;;;22.90;5.30;;;;;;2616475;54;20487;-82
2022/10/09 15:09:01;;;;;;;4.18;3.80;;;21.70;4.80;;;;;;2614121;54;20407;-79
2022/10/09 15:12:05;;;;;;;4.27;3.87;;;22.80;3.50;;;;;;2615114;54;20840;-78
2022/10/09 15:14:30;;;;;;;3.90;3.40;;;22.10;4.40;;;;;;2612090;48;20441;-78
2022/10/09 15:20:20;;;;;;;5.18;3.80;;;22.70;4.50;;;;;;2616619;39;20559;-78
2022/10/09 15:26:08;;;;;;;4.07;3.77;;;21.90;4.90;;;;;;2616499;31;20832;-79
2022/10/09 15:31:57;;;;;;;6.65;4.22;;;20.90;5.70;;;;;;2613468;46;20371;-78
2022/10/09 15:37:44;;;;;;;4.60;4.40;;;21.00;5.90;;;;;;2613772;54;20139;-80
2022/10/09 15:43:32;;;;;;;5.18;4.85;;;21.50;5.40;;;;;;2616144;54;20129;-80
2022/10/09 15:49:20;;;;;;;4.47;4.17;;;20.80;5.90;;;;;;2612684;46;20256;-79
2022/10/09 15:55:08;;;;;;;4.07;3.87;;;20.70;6.00;;;;;;2614587;31;20614;-78
2022/10/09 16:04:29;;;;;;;9.00;8.13;;;19.10;8.20;;;;;;2614064;54;20504;-79
2022/10/09 16:06:56;;;;;;;10.33;9.50;;;19.90;6.90;;;;;;2614653;54;20429;-76
2022/10/09 16:12:44;;;;;;;8.00;4.50;;;19.20;6.20;;;;;;2612339;39;20796;-78
2022/10/09 16:18:32;;;;;;;6.10;5.70;;;19.30;7.40;;;;;;2613755;54;20206;-78
2022/10/09 16:24:20;;;;;;;8.00;7.20;;;19.20;8.80;;;;;;2614836;54;20231;-77
2022/10/09 16:30:10;;;;;;;3.80;3.60;;;17.20;9.70;;;;;;2615751;54;20368;-79
2022/10/09 16:36:10;;;;;;;4.93;4.17;;;16.30;12.90;;;;;;2616366;54;20400;-79
2022/10/09 16:42:02;;;;;;;4.77;4.47;;;15.70;14.80;;;;;;2616988;54;20427;-77
2022/10/09 16:47:50;;;;;;;5.15;4.75;;;15.30;17.30;;;;;;2615225;54;20383;-76
2022/10/09 16:53:39;;;;;;;4.80;4.40;;;15.00;18.80;;;;;;2616375;54;20146;-78
2022/10/09 16:59:27;;;;;;;5.03;4.63;;;14.60;21.30;;;;;;2616507;54;20391;-78
2022/10/09 17:09:01;;;;;;;5.40;4.93;;;14.30;22.30;;;;;;2617095;54;20391;-80
2022/10/09 17:14:49;;;;;;;5.45;4.95;;;14.00;24.20;;;;;;2615521;54;20134;-77
2022/10/09 17:20:37;;;;;;;5.37;5.00;;;13.60;29.60;;;;;;2616492;54;20138;-77
2022/10/09 17:26:26;;;;;;;5.83;5.33;;;13.50;31.80;;;;;;2616284;54;20380;-77
2022/10/09 17:32:14;;;;;;;5.72;5.32;;;13.20;34.30;;;;;;2615553;39;20794;-77
2022/10/09 17:38:02;;;;;;;5.40;4.90;;;12.90;47.80;;;;;;2615235;54;20721;-77
2022/10/09 17:43:51;;;;;;;5.27;4.77;;;12.50;65.30;;;;;;2616317;54;20154;-75
2022/10/09 17:49:38;;;;;;;6.10;5.67;;;12.40;70.50;;;;;;2615275;54;20134;-76
2022/10/09 17:55:26;;;;;;;5.90;5.37;;;12.20;80.10;;;;;;2615512;54;20150;-76
2022/10/09 18:01:15;;;;;;;5.67;5.23;;;12.30;79.10;;;;;;2615207;54;20423;-77
2022/10/09 18:04:29;;;;;;;6.13;5.20;;;12.10;82.30;;;;;;2614790;54;20939;-76
2022/10/09 18:06:56;;;;;;;8.63;7.93;;;11.90;86.30;;;;;;2615323;47;20434;-75
2022/10/09 18:12:44;;;;;;;7.43;6.73;;;11.70;94.90;;;;;;2613894;54;20439;-76
2022/10/09 18:18:32;;;;;;;11.60;6.23;;;11.50;99.90;;;;;;2615472;54;20230;-76
2022/10/09 18:24:20;;;;;;;6.60;5.90;;;11.20;99.90;;;;;;2616187;54;20387;-74
2022/10/09 18:30:08;;;;;;;10.20;6.97;;;10.90;99.90;;;;;;2615540;54;20355;-76
2022/10/09 18:36:01;;;;;;;8.30;7.60;;;10.60;99.90;;;;;;2615235;54;20439;-78
2022/10/09 18:41:49;;;;;;;6.90;6.30;;;10.40;99.90;;;;;;2615492;39;20752;-74
2022/10/09 18:47:37;;;;;;;7.93;7.20;;;10.10;99.90;;;;;;2614334;54;20118;-75
2022/10/09 18:53:25;;;;;;;8.53;7.83;;;10.00;99.90;;;;;;2615108;54;20998;-76
2022/10/09 18:59:18;;;;;;;11.23;8.03;;;10.00;99.90;;;;;;2616191;54;20126;-78
2022/10/09 19:09:02;;;;;;;10.00;7.57;;;9.70;99.90;;;;;;2615440;54;20426;-76
2022/10/09 19:14:50;;;;;;;9.52;8.52;;;9.60;99.90;;;;;;2615053;54;20889;-76
2022/10/09 19:20:38;;;;;;;9.43;8.67;;;9.60;99.90;;;;;;2615407;54;20378;-77
2022/10/09 19:26:28;;;;;;;9.87;8.93;;;9.50;99.90;;;;;;2615735;54;20130;-78
2022/10/09 19:32:17;;;;;;;9.13;8.33;;;9.40;99.90;;;;;;2614613;54;20516;-78
2022/10/09 19:38:04;;;;;;;8.93;8.03;;;9.20;99.90;;;;;;2615324;54;20661;-79
2022/10/09 19:43:52;;;;;;;8.63;7.40;;;9.20;99.90;;;;;;2615090;54;20502;-78
2022/10/09 19:49:40;;;;;;;8.43;7.63;;;9.00;99.90;;;;;;2612752;46;20156;-79
2022/10/09 19:55:32;;;;;;;9.67;8.67;;;9.00;99.90;;;;;;2614834;54;20410;-79
2022/10/09 20:01:23;;;;;;;10.00;7.70;;;9.00;99.90;;;;;;2613405;54;20505;-80
2022/10/09 20:04:27;;;;;;;8.40;7.50;;;8.80;99.90;;;;;;2616821;39;20818;-79
2022/10/09 20:10:34;;;;;;;8.13;7.00;;;8.50;99.90;;;;;;2615858;54;20390;-78
2022/10/09 20:16:23;;;;;;;8.90;7.70;;;8.50;99.90;;;;;;2614720;54;20371;-79
2022/10/09 20:22:11;;;;;;;9.13;8.13;;;8.20;99.90;;;;;;2614939;54;20187;-77
2022/10/09 20:27:59;;;;;;;15.48;8.63;;;8.10;99.90;;;;;;2615651;46;20218;-77
2022/10/09 20:33:49;;;;;;;10.73;7.07;;;8.10;99.90;;;;;;2615267;54;20192;-76
2022/10/09 20:39:37;;;;;;;9.90;7.93;;;7.90;99.90;;;;;;2615004;54;20403;-77
2022/10/09 20:45:25;;;;;;;8.70;7.80;;;7.80;99.90;;;;;;2613702;54;20142;-77
2022/10/09 20:51:13;;;;;;;11.53;9.00;;;7.60;99.90;;;;;;2614028;39;20734;-77
2022/10/09 20:57:01;;;;;;;10.20;9.27;;;7.60;99.90;;;;;;2616060;54;20150;-77
2022/10/09 21:02:48;;;;;;;13.87;8.40;;;7.50;99.90;;;;;;2616603;39;20550;-77
2022/10/09 21:08:44;;;;;;;11.20;9.00;;;7.40;99.90;;;;;;2614582;54;20142;-77
2022/10/09 21:14:31;;;;;;;12.30;9.52;;;7.30;99.90;;;;;;2616730;54;20357;-76
2022/10/09 21:20:19;;;;;;;13.43;9.90;;;7.30;99.90;;;;;;2616534;54;20138;-76
2022/10/09 21:26:11;;;;;;;11.43;9.43;;;7.20;99.90;;;;;;2616090;54;20398;-76
2022/10/09 21:31:58;;;;;;;14.47;10.03;;;7.20;99.90;;;;;;2614826;54;20452;-76
2022/10/09 21:37:46;;;;;;;15.40;10.27;;;7.00;99.90;;;;;;2615059;54;20166;-76
2022/10/09 21:43:33;;;;;;;11.48;9.02;;;7.10;99.90;;;;;;2614177;54;20350;-74
2022/10/09 21:49:24;;;;;;;12.37;9.50;;;6.90;99.90;;;;;;2616441;54;20254;-75
2022/10/09 21:55:12;;;;;;;13.07;9.67;;;7.00;99.90;;;;;;2616432;54;20426;-76
2022/10/09 22:01:01;;;;;;;13.48;10.10;;;6.80;99.90;;;;;;2616945;54;20121;-78
2022/10/09 22:10:29;;;;;;;14.07;10.43;;;6.70;99.90;;;;;;2617541;54;21124;-77
2022/10/09 22:16:17;;;;;;;12.90;10.53;;;6.50;99.90;;;;;;2616473;54;20423;-79
2022/10/09 22:22:05;;;;;;;10.20;9.07;;;6.40;99.90;;;;;;2616360;46;20150;-75
2022/10/09 22:27:52;;;;;;;10.77;8.77;;;6.60;99.90;;;;;;2615539;54;20139;-76
2022/10/09 22:33:40;;;;;;;12.07;9.57;;;6.60;99.90;;;;;;2615368;54;20401;-77
2022/10/09 22:39:28;;;;;;;11.67;10.33;;;6.40;99.90;;;;;;2617062;54;20399;-78
2022/10/09 22:45:16;;;;;;;12.07;9.83;;;6.40;99.90;;;;;;2615704;54;20166;-78
2022/10/09 22:51:08;;;;;;;11.30;8.52;;;6.30;99.90;;;;;;2616686;54;20123;-78
2022/10/09 22:56:55;;;;;;;11.95;10.07;;;6.40;99.90;;;;;;2615148;54;20386;-78
2022/10/09 23:02:43;;;;;;;11.37;9.27;;;6.30;99.90;;;;;;2615212;54;20178;-78
2022/10/09 23:06:02;;;;;;;10.80;9.00;;;6.30;99.90;;;;;;2615837;47;20981;-78
2022/10/09 23:08:27;;;;;;;12.73;9.47;;;6.30;99.90;;;;;;2615462;54;20152;-80
2022/10/09 23:14:15;;;;;;;10.37;8.43;;;6.20;99.90;;;;;;2614876;54;20134;-78
2022/10/09 23:20:04;;;;;;;13.80;9.20;;;6.10;99.90;;;;;;2616571;54;20406;-77
2022/10/09 23:25:51;;;;;;;16.33;10.30;;;6.10;99.90;;;;;;2615740;54;20383;-75
2022/10/09 23:31:39;;;;;;;12.10;9.63;;;6.00;99.90;;;;;;2615135;54;20122;-75
2022/10/09 23:37:27;;;;;;;10.80;9.70;;;6.00;99.90;;;;;;2615955;54;20387;-76
2022/10/09 23:43:16;;;;;;;13.87;10.10;;;6.00;99.90;;;;;;2615873;54;20122;-76
2022/10/09 23:49:05;;;;;;;10.80;9.23;;;5.90;99.90;;;;;;2615104;54;20956;-76
2022/10/09 23:54:52;;;;;;;13.93;11.60;;;5.90;99.90;;;;;;2615195;54;20406;-76
